createdAt,value
2016-05-11T00:00:08.618Z,68.66
2016-05-11T00:01:08.621Z,68.66
2016-05-11T00:02:08.608Z,68.47
2016-05-11T00:03:08.595Z,68.47
2016-05-11T00:04:08.583Z,68.85
2016-05-11T00:05:08.569Z,69.34
2016-05-11T00:06:08.556Z,69.43
2016-05-11T00:07:08.544Z,69.24
2016-05-11T00:08:08.546Z,68.95
2016-05-11T00:09:08.534Z,69.34
2016-05-11T00:10:08.520Z,68.47
2016-05-11T00:11:08.522Z,69.05
2016-05-11T00:12:08.511Z,69.14
2016-05-11T00:13:08.341Z,69.53
2016-05-11T00:14:08.484Z,69.53
2016-05-11T00:15:08.519Z,69.81
2016-05-11T00:16:08.474Z,69.68
2016-05-11T00:17:08.461Z,69.4
2016-05-11T00:18:08.448Z,69.49
2016-05-11T00:19:08.451Z,69.11
2016-05-11T00:20:08.438Z,69.68
2016-05-11T00:21:08.424Z,69.49
2016-05-11T00:22:08.412Z,69.68
2016-05-11T00:23:08.399Z,70.17
2016-05-11T00:24:08.401Z,69.87
2016-05-11T00:25:08.233Z,69.97
2016-05-11T00:26:08.376Z,69.97
2016-05-11T00:27:08.207Z,70.17
2016-05-11T00:28:08.366Z,69.97
2016-05-11T00:29:08.353Z,69.97
2016-05-11T00:30:08.199Z,69.97
2016-05-11T00:31:08.342Z,70.17
2016-05-11T00:32:08.345Z,70.26
2016-05-11T00:33:08.161Z,70.36
2016-05-11T00:34:08.320Z,70.17
2016-05-11T00:35:08.291Z,70.07
2016-05-11T00:36:08.278Z,69.97
2016-05-11T00:37:08.281Z,70.45
2016-05-11T00:38:08.267Z,70.45
2016-05-11T00:39:08.255Z,70.93
2016-05-11T00:40:08.242Z,71.41
2016-05-11T00:41:08.228Z,70.36
2016-05-11T00:42:08.231Z,70.36
2016-05-11T00:43:08.218Z,70.07
2016-05-11T00:44:08.206Z,69.97
2016-05-11T00:45:08.114Z,71.12
2016-05-11T00:46:08.196Z,69.97
2016-05-11T00:47:08.183Z,70.26
2016-05-11T00:48:08.185Z,70.36
2016-05-11T00:49:08.157Z,70.36
2016-05-11T00:50:08.191Z,70.45
2016-05-11T00:51:07.990Z,70.84
2016-05-11T00:52:08.133Z,70.17
2016-05-11T00:53:08.120Z,70.17
2016-05-11T00:54:07.967Z,70.64
2016-05-11T00:55:08.095Z,70.36
2016-05-11T00:56:08.098Z,70.45
2016-05-11T00:57:08.084Z,71.03
2016-05-11T00:58:08.071Z,70.55
2016-05-11T00:59:08.059Z,70.93
2016-05-11T01:00:08.061Z,71.03
2016-05-11T01:01:08.048Z,71.03
2016-05-11T01:02:08.034Z,71.12
2016-05-11T01:03:08.037Z,70.26
2016-05-11T01:04:08.009Z,70.36
2016-05-11T01:05:08.028Z,70.93
2016-05-11T01:06:08.000Z,70.84
2016-05-11T01:07:07.986Z,71.31
2016-05-11T01:08:07.973Z,71.03
2016-05-11T01:09:07.975Z,71.12
2016-05-11T01:10:07.806Z,70.93
2016-05-11T01:11:07.950Z,71.12
2016-05-11T01:12:07.953Z,71.22
2016-05-11T01:13:07.940Z,71.51
2016-05-11T01:14:07.771Z,71.61
2016-05-11T01:15:07.914Z,70.84
2016-05-11T01:16:07.901Z,70.93
2016-05-11T01:17:07.889Z,71.41
2016-05-11T01:18:07.890Z,71.22
2016-05-11T01:19:07.877Z,71.03
2016-05-11T01:20:07.912Z,70.93
2016-05-11T01:21:07.852Z,71.03
2016-05-11T01:22:07.855Z,71.41
2016-05-11T01:23:07.841Z,71.03
2016-05-11T01:24:07.829Z,71.22
2016-05-11T01:25:07.815Z,71.41
2016-05-11T01:26:07.819Z,71.41
2016-05-11T01:27:07.806Z,71.12
2016-05-11T01:28:07.793Z,71.19
2016-05-11T01:29:07.780Z,71.03
2016-05-11T01:30:07.767Z,70.93
2016-05-11T01:31:07.753Z,70.74
2016-05-11T01:32:07.756Z,71.37
2016-05-11T01:33:07.760Z,70.9
2016-05-11T01:34:07.731Z,70.8
2016-05-11T01:35:07.718Z,71.51
2016-05-11T01:36:07.705Z,71.51
2016-05-11T01:37:07.708Z,71.31
2016-05-11T01:38:07.694Z,71.61
2016-05-11T01:39:07.682Z,71.41
2016-05-11T01:40:07.684Z,71.7
2016-05-11T01:41:07.671Z,71.8
2016-05-11T01:42:07.643Z,71.76
2016-05-11T01:43:07.645Z,71.41
2016-05-11T01:44:07.648Z,71.37
2016-05-11T01:45:07.776Z,71.89
2016-05-11T01:46:07.622Z,71.57
2016-05-11T01:47:07.609Z,71.95
2016-05-11T01:48:07.596Z,71.76
2016-05-11T01:49:07.600Z,72.24
2016-05-11T01:50:07.586Z,72.14
2016-05-11T01:51:07.574Z,72.63
2016-05-11T01:52:07.560Z,71.95
2016-05-11T01:53:07.547Z,72.53
2016-05-11T01:54:07.535Z,71.76
2016-05-11T01:55:07.537Z,72.33
2016-05-11T01:56:07.524Z,72.33
2016-05-11T01:57:07.512Z,72.24
2016-05-11T01:58:07.499Z,71.86
2016-05-11T01:59:07.485Z,71.86
2016-05-11T02:00:07.707Z,72.72
2016-05-11T02:01:07.475Z,72.91
2016-05-11T02:02:07.478Z,72.81
2016-05-11T02:03:07.448Z,72.63
2016-05-11T02:04:07.452Z,72.72
2016-05-11T02:05:07.440Z,72.72
2016-05-11T02:06:07.426Z,72.72
2016-05-11T02:07:07.413Z,72.81
2016-05-11T02:08:07.400Z,72.91
2016-05-11T02:09:07.247Z,72.63
2016-05-11T02:10:07.389Z,72.43
2016-05-11T02:11:07.377Z,72.33
2016-05-11T02:12:07.364Z,72.91
2016-05-11T02:13:07.351Z,72.53
2016-05-11T02:14:07.338Z,72.72
2016-05-11T02:15:07.185Z,72.81
2016-05-11T02:16:07.328Z,72.63
2016-05-11T02:17:07.316Z,72.72
2016-05-11T02:18:07.302Z,72.72
2016-05-11T02:19:07.305Z,72.63
2016-05-11T02:20:07.292Z,72.91
2016-05-11T02:21:07.279Z,72.81
2016-05-11T02:22:07.282Z,73
2016-05-11T02:23:07.253Z,72.91
2016-05-11T02:24:07.240Z,73.3
2016-05-11T02:25:07.243Z,73
2016-05-11T02:26:07.229Z,72.63
2016-05-11T02:27:07.217Z,73
2016-05-11T02:28:07.204Z,73.58
2016-05-11T02:29:07.191Z,73.68
2016-05-11T02:30:07.053Z,73.2
2016-05-11T02:31:07.181Z,73.49
2016-05-11T02:32:07.168Z,73.49
2016-05-11T02:33:07.155Z,72.91
2016-05-11T02:34:07.142Z,73.39
2016-05-11T02:35:07.145Z,73.58
2016-05-11T02:36:07.131Z,72.81
2016-05-11T02:37:07.119Z,73.49
2016-05-11T02:38:07.106Z,73.39
2016-05-11T02:39:06.937Z,73.77
2016-05-11T02:40:07.284Z,73.65
2016-05-11T02:41:07.083Z,73.77
2016-05-11T02:42:07.101Z,73.39
2016-05-11T02:43:07.056Z,73.77
2016-05-11T02:44:07.059Z,73.3
2016-05-11T02:45:07.374Z,73.45
2016-05-11T02:46:07.034Z,73.68
2016-05-11T02:47:07.021Z,73.39
2016-05-11T02:48:07.024Z,74.16
2016-05-11T02:49:07.027Z,73.93
2016-05-11T02:50:06.997Z,74.41
2016-05-11T02:51:06.985Z,74.6
2016-05-11T02:52:06.972Z,74.31
2016-05-11T02:53:06.974Z,74.12
2016-05-11T02:54:06.961Z,74.22
2016-05-11T02:55:06.933Z,74.02
2016-05-11T02:56:06.951Z,74.12
2016-05-11T02:57:06.766Z,73.93
2016-05-11T02:58:06.909Z,74.02
2016-05-11T02:59:06.741Z,74.31
2016-05-11T03:00:07.150Z,74.6
2016-05-11T03:01:06.746Z,74.6
2016-05-11T03:02:06.873Z,74.51
2016-05-11T03:03:06.876Z,74.6
2016-05-11T03:04:06.691Z,74.6
2016-05-11T03:05:06.834Z,74.22
2016-05-11T03:06:06.869Z,74.31
2016-05-11T03:07:06.856Z,74.22
2016-05-11T03:08:06.671Z,74.69
2016-05-11T03:09:06.798Z,74.6
2016-05-11T03:10:06.786Z,75.27
2016-05-11T03:11:06.772Z,75.14
2016-05-11T03:12:06.759Z,75.23
2016-05-11T03:13:06.747Z,75.52
2016-05-11T03:14:06.609Z,74.95
2016-05-11T03:15:06.955Z,75.23
2016-05-11T03:16:06.739Z,75.33
2016-05-11T03:17:06.711Z,75.71
2016-05-11T03:18:06.745Z,75.71
2016-05-11T03:19:06.544Z,75.81
2016-05-11T03:20:06.688Z,76
2016-05-11T03:21:06.674Z,75.62
2016-05-11T03:22:06.661Z,75.62
2016-05-11T03:23:06.649Z,75.52
2016-05-11T03:24:06.651Z,75.62
2016-05-11T03:25:06.639Z,75.43
2016-05-11T03:26:06.626Z,75.62
2016-05-11T03:27:06.629Z,75.81
2016-05-11T03:28:06.616Z,75.48
2016-05-11T03:29:06.587Z,75.81
2016-05-11T03:30:06.589Z,75.87
2016-05-11T03:31:06.567Z,76.54
2016-05-11T03:32:06.609Z,76.54
2016-05-11T03:33:06.636Z,76.73
2016-05-11T03:34:06.663Z,76.35
2016-05-11T03:35:06.690Z,77.97
2016-05-11T03:36:06.728Z,78.07
2016-05-11T03:37:06.573Z,78.55
2016-05-11T03:38:06.730Z,78.93
2016-05-11T03:39:06.732Z,79.8
2016-05-11T03:40:06.733Z,79.8
2016-05-11T03:41:06.732Z,79.99
2016-05-11T03:42:06.569Z,79.7
2016-05-11T03:43:06.716Z,78.84
2016-05-11T03:44:06.724Z,79.41
2016-05-11T03:45:06.717Z,78.7
2016-05-11T03:46:06.708Z,78.55
2016-05-11T03:47:06.697Z,78.64
2016-05-11T03:48:06.686Z,78.84
2016-05-11T03:49:06.674Z,78.93
2016-05-11T03:50:06.663Z,78.61
2016-05-11T03:51:06.684Z,78.8
2016-05-11T03:52:06.499Z,78.51
2016-05-11T03:53:06.643Z,78.74
2016-05-11T03:54:06.631Z,78.7
2016-05-11T03:55:06.618Z,78.89
2016-05-11T03:56:06.605Z,78.61
2016-05-11T03:57:06.608Z,78.7
2016-05-11T03:58:06.580Z,79.08
2016-05-11T03:59:06.583Z,79.08
2016-05-11T04:00:06.570Z,78.89
2016-05-11T04:01:06.559Z,78.8
2016-05-11T04:02:06.545Z,78.7
2016-05-11T04:03:06.548Z,79.75
2016-05-11T04:04:06.520Z,79.75
2016-05-11T04:05:06.350Z,79.57
2016-05-11T04:06:06.508Z,79.37
2016-05-11T04:07:06.496Z,80.04
2016-05-11T04:08:06.484Z,79.85
2016-05-11T04:09:06.314Z,79.85
2016-05-11T04:10:06.458Z,79.85
2016-05-11T04:11:06.444Z,79.95
2016-05-11T04:12:06.431Z,80.62
2016-05-11T04:13:06.418Z,80.81
2016-05-11T04:14:06.422Z,80.52
2016-05-11T04:15:06.533Z,79.95
2016-05-11T04:16:06.239Z,80.14
2016-05-11T04:17:06.382Z,79.95
2016-05-11T04:18:06.401Z,80.04
2016-05-11T04:19:06.357Z,80.52
2016-05-11T04:20:06.343Z,80.62
2016-05-11T04:21:06.174Z,80.14
2016-05-11T04:22:06.334Z,79.95
2016-05-11T04:23:06.320Z,80.81
2016-05-11T04:24:06.292Z,80.14
2016-05-11T04:25:06.295Z,80.81
2016-05-11T04:26:06.282Z,80.43
2016-05-11T04:27:06.269Z,81.04
2016-05-11T04:28:06.271Z,80.04
2016-05-11T04:29:06.243Z,80.47
2016-05-11T04:30:06.230Z,80.27
2016-05-11T04:31:06.217Z,80.47
2016-05-11T04:32:06.219Z,80.47
2016-05-11T04:33:06.207Z,80.76
2016-05-11T04:34:06.194Z,80.76
2016-05-11T04:35:06.024Z,81.04
2016-05-11T04:36:06.167Z,82.09
2016-05-11T04:37:06.155Z,80.66
2016-05-11T04:38:06.141Z,80.56
2016-05-11T04:39:06.145Z,80.85
2016-05-11T04:40:06.335Z,80.76
2016-05-11T04:41:06.166Z,80.27
2016-05-11T04:42:06.122Z,80.47
2016-05-11T04:43:06.093Z,79.89
2016-05-11T04:44:05.924Z,80.27
2016-05-11T04:45:05.911Z,79.89
2016-05-11T04:46:06.054Z,80.37
2016-05-11T04:47:06.057Z,80.66
2016-05-11T04:48:06.044Z,80.47
2016-05-11T04:49:06.031Z,81.43
2016-05-11T04:50:06.221Z,80.56
2016-05-11T04:51:06.005Z,80.18
2016-05-11T04:52:05.992Z,80.08
2016-05-11T04:53:05.823Z,80.18
2016-05-11T04:54:05.982Z,80.47
2016-05-11T04:55:05.953Z,81.23
2016-05-11T04:56:05.957Z,80.37
2016-05-11T04:57:05.786Z,79.8
2016-05-11T04:58:05.931Z,80.08
2016-05-11T04:59:05.933Z,80.08
2016-05-11T05:00:05.920Z,79.6
2016-05-11T05:01:05.750Z,79.99
2016-05-11T05:02:05.879Z,79.7
2016-05-11T05:03:05.881Z,79.7
2016-05-11T05:04:05.915Z,79.7
2016-05-11T05:05:05.856Z,79.6
2016-05-11T05:06:05.889Z,79.22
2016-05-11T05:07:05.830Z,79.45
2016-05-11T05:08:05.832Z,79.55
2016-05-11T05:09:05.819Z,78.78
2016-05-11T05:10:05.666Z,78.88
2016-05-11T05:11:05.809Z,78.59
2016-05-11T05:12:05.639Z,78.4
2016-05-11T05:13:05.767Z,78.69
2016-05-11T05:14:05.755Z,78.4
2016-05-11T05:15:05.772Z,78.59
2016-05-11T05:16:05.744Z,78.4
2016-05-11T05:17:05.732Z,78.59
2016-05-11T05:18:05.749Z,78.4
2016-05-11T05:19:06.127Z,78.2
2016-05-11T05:20:05.693Z,77.73
2016-05-11T05:21:05.679Z,77.92
2016-05-11T05:22:05.713Z,78.2
2016-05-11T05:23:05.685Z,78.11
2016-05-11T05:24:05.671Z,78.4
2016-05-11T05:25:05.660Z,78.2
2016-05-11T05:26:05.645Z,77.92
2016-05-11T05:27:05.477Z,78.4
2016-05-11T05:28:05.604Z,78.69
2016-05-11T05:29:05.607Z,78.4
2016-05-11T05:30:05.594Z,78.02
2016-05-11T05:31:05.582Z,78.02
2016-05-11T05:32:05.568Z,77.73
2016-05-11T05:33:05.556Z,78.05
2016-05-11T05:34:05.559Z,78.63
2016-05-11T05:35:05.545Z,78.05
2016-05-11T05:36:05.533Z,78.15
2016-05-11T05:37:05.363Z,78.72
2016-05-11T05:38:05.506Z,77.76
2016-05-11T05:39:05.494Z,77.44
2016-05-11T05:40:05.325Z,77.73
2016-05-11T05:41:05.483Z,77.63
2016-05-11T05:42:05.470Z,77.09
2016-05-11T05:43:05.458Z,77.15
2016-05-11T05:44:05.460Z,76.9
2016-05-11T05:45:05.432Z,76.9
2016-05-11T05:46:05.419Z,76.62
2016-05-11T05:47:05.421Z,76.71
2016-05-11T05:48:05.408Z,76.42
2016-05-11T05:49:05.396Z,75.85
2016-05-11T05:50:05.383Z,75.75
2016-05-11T05:51:05.213Z,75.46
2016-05-11T05:52:05.357Z,76.04
2016-05-11T05:53:05.374Z,75.85
2016-05-11T05:54:05.346Z,76.04
2016-05-11T05:55:05.349Z,75.46
2016-05-11T05:56:05.320Z,76.04
2016-05-11T05:57:05.307Z,75.75
2016-05-11T05:58:05.310Z,75.95
2016-05-11T05:59:05.281Z,75.85
2016-05-11T06:00:05.284Z,75.18
2016-05-11T06:01:05.521Z,75.27
2016-05-11T06:02:05.258Z,75.27
2016-05-11T06:03:05.277Z,75.7
2016-05-11T06:04:05.248Z,75.89
2016-05-11T06:05:05.236Z,76.37
2016-05-11T06:06:05.269Z,75.7
2016-05-11T06:07:05.069Z,75.18
2016-05-11T06:08:05.197Z,75.4
2016-05-11T06:09:05.199Z,74.83
2016-05-11T06:10:05.187Z,74.44
2016-05-11T06:11:05.173Z,74.64
2016-05-11T06:12:05.160Z,75.31
2016-05-11T06:13:05.148Z,74.64
2016-05-11T06:14:05.166Z,75.4
2016-05-11T06:15:05.184Z,75.31
2016-05-11T06:16:05.640Z,74.64
2016-05-11T06:17:05.127Z,74.44
2016-05-11T06:18:04.958Z,74.54
2016-05-11T06:19:05.101Z,74.64
2016-05-11T06:20:04.948Z,75.02
2016-05-11T06:21:05.324Z,75.02
2016-05-11T06:22:15.593Z,73.81
2016-05-11T06:23:05.800Z,73.68
2016-05-11T06:24:09.458Z,74.58
2016-05-11T06:25:05.617Z,73.33
2016-05-11T06:26:07.995Z,73.04
2016-05-11T06:27:05.029Z,71.51
2016-05-11T06:28:05.266Z,72.66
2016-05-11T06:29:05.051Z,73.62
2016-05-11T06:30:04.990Z,72.75
2016-05-11T06:31:05.165Z,73.24
2016-05-11T06:32:04.964Z,72.18
2016-05-11T06:33:04.952Z,72.66
2016-05-11T06:34:04.954Z,72.47
2016-05-11T06:35:04.942Z,72.47
2016-05-11T06:36:04.929Z,72.66
2016-05-11T06:37:04.915Z,72.41
2016-05-11T06:38:04.918Z,71.73
2016-05-11T06:39:04.905Z,71.73
2016-05-11T06:40:05.095Z,70.58
2016-05-11T06:41:04.879Z,69.43
2016-05-11T06:42:04.710Z,69.72
2016-05-11T06:43:04.869Z,69.81
2016-05-11T06:44:04.855Z,69.62
2016-05-11T06:45:04.843Z,70.1
2016-05-11T06:46:05.081Z,69.05
2016-05-11T06:47:04.817Z,69.46
2016-05-11T06:48:04.820Z,69.53
2016-05-11T06:49:04.650Z,69.81
2016-05-11T06:50:04.794Z,69.18
2016-05-11T06:51:04.781Z,69.46
2016-05-11T06:52:04.783Z,69.46
2016-05-11T06:53:04.771Z,68.79
2016-05-11T06:54:04.633Z,68.6
2016-05-11T06:55:04.745Z,68.89
2016-05-11T06:56:04.732Z,68.02
2016-05-11T06:57:04.735Z,69.37
2016-05-11T06:58:04.721Z,67.64
2016-05-11T06:59:04.724Z,68.41
2016-05-11T07:00:04.696Z,67.07
2016-05-11T07:01:04.746Z,66
2016-05-11T07:02:10.561Z,66.42
2016-05-11T07:03:04.516Z,66.14
2016-05-11T07:04:04.660Z,65.46
2016-05-11T07:05:04.663Z,64.5
2016-05-11T07:06:04.493Z,64.98
2016-05-11T07:07:04.637Z,65.08
2016-05-11T07:08:04.639Z,64.5
2016-05-11T07:09:04.626Z,64.22
2016-05-11T07:10:04.614Z,64.31
2016-05-11T07:11:04.600Z,64.12
2016-05-11T07:12:04.603Z,64.4
2016-05-11T07:13:04.589Z,64.31
2016-05-11T07:14:04.578Z,64.25
2016-05-11T07:15:04.564Z,63.25
2016-05-11T07:16:04.895Z,62.51
2016-05-11T07:17:04.554Z,63.38
2016-05-11T07:18:04.541Z,63.28
2016-05-11T07:19:04.528Z,63.48
2016-05-11T07:20:04.530Z,63.67
2016-05-11T07:21:04.518Z,63.57
2016-05-11T07:22:04.505Z,63.28
2016-05-11T07:23:04.351Z,62.41
2016-05-11T07:24:04.510Z,61.46
2016-05-11T07:25:04.482Z,61.74
2016-05-11T07:26:04.328Z,62.13
2016-05-11T07:27:04.472Z,62.23
2016-05-11T07:28:04.460Z,60.78
2016-05-11T07:29:04.446Z,57.35
2016-05-11T07:30:04.464Z,53.48
2016-05-11T07:31:04.654Z,51.61
2016-05-11T07:32:04.438Z,49.63
2016-05-11T07:33:04.425Z,49.07
2016-05-11T07:34:04.412Z,46.9
2016-05-11T07:35:04.415Z,44.04
2016-05-11T07:36:04.418Z,43.21
2016-05-11T07:37:04.404Z,40.91
2016-05-11T07:38:04.407Z,41.68
2016-05-11T07:39:04.239Z,39.57
2016-05-11T07:40:04.398Z,41.02
2016-05-11T07:41:04.384Z,38.71
2016-05-11T07:42:04.387Z,38.81
2016-05-11T07:43:04.218Z,38.15
2016-05-11T07:44:04.377Z,38.71
2016-05-11T07:45:04.364Z,39.98
2016-05-11T07:46:05.179Z,37.96
2016-05-11T07:47:04.370Z,36.89
2016-05-11T07:48:04.372Z,37.82
2016-05-11T07:49:04.359Z,38.6
2016-05-11T07:50:04.361Z,37.74
2016-05-11T07:51:04.661Z,38.04
2016-05-11T07:52:04.210Z,37.94
2016-05-11T07:53:04.354Z,36.87
2016-05-11T07:54:04.358Z,37.18
2016-05-11T07:55:04.360Z,37.55
2016-05-11T07:56:04.363Z,37.07
2016-05-11T07:57:04.349Z,38.13
2016-05-11T07:58:04.195Z,37.94
2016-05-11T07:59:04.339Z,39.45
2016-05-11T08:00:04.342Z,39.43
2016-05-11T08:01:04.923Z,39.04
2016-05-11T08:02:04.347Z,40.15
2016-05-11T08:03:04.349Z,38.5
2016-05-11T08:04:04.352Z,39.26
2016-05-11T08:05:04.355Z,40.89
2016-05-11T08:06:04.343Z,40.52
2016-05-11T08:07:04.189Z,40.64
2016-05-11T08:08:04.348Z,38.71
2016-05-11T08:09:04.194Z,38.06
2016-05-11T08:10:04.337Z,37.7
2016-05-11T08:11:04.356Z,35.19
2016-05-11T08:12:04.343Z,34.53
2016-05-11T08:13:04.361Z,33.29
2016-05-11T08:14:04.348Z,32.43
2016-05-11T08:15:04.211Z,32.65
2016-05-11T08:16:04.525Z,32.16
2016-05-11T08:17:04.200Z,31.79
2016-05-11T08:18:04.359Z,31.7
2016-05-11T08:19:04.361Z,30.35
2016-05-11T08:20:04.364Z,30.37
2016-05-11T08:21:04.367Z,29.8
2016-05-11T08:22:04.229Z,29.6
2016-05-11T08:23:04.372Z,29.42
2016-05-11T08:24:04.375Z,29.11
2016-05-11T08:25:04.378Z,29.31
2016-05-11T08:26:04.380Z,29.91
2016-05-11T08:27:04.383Z,28.16
2016-05-11T08:28:04.386Z,28.74
2016-05-11T08:29:04.388Z,28.94
2016-05-11T08:30:04.407Z,28.47
2016-05-11T08:31:04.238Z,25.74
2016-05-11T08:32:04.396Z,24.57
2016-05-11T08:33:04.399Z,25.26
2016-05-11T08:34:04.246Z,24.55
2016-05-11T08:35:04.248Z,25.43
2016-05-11T08:36:04.423Z,27.17
2016-05-11T08:37:04.410Z,27.19
2016-05-11T08:38:04.412Z,26.6
2016-05-11T08:39:04.415Z,26.79
2016-05-11T08:40:04.621Z,25.93
2016-05-11T08:41:04.421Z,24.86
2016-05-11T08:42:04.423Z,25.37
2016-05-11T08:43:04.426Z,24.87
2016-05-11T08:44:04.429Z,24.68
2016-05-11T08:45:04.447Z,25.56
2016-05-11T08:46:04.294Z,25.37
2016-05-11T08:47:04.437Z,25.07
2016-05-11T08:48:04.439Z,24.68
2016-05-11T08:49:04.287Z,25.77
2016-05-11T08:50:04.461Z,23.81
2016-05-11T08:51:04.447Z,25.67
2016-05-11T08:52:04.450Z,25.84
2016-05-11T08:53:04.469Z,26.71
2016-05-11T08:54:04.471Z,24.85
2016-05-11T08:55:04.474Z,26.59
2016-05-11T08:56:04.477Z,27.91
2016-05-11T08:57:04.464Z,28.86
2016-05-11T08:58:04.482Z,29.63
2016-05-11T08:59:04.485Z,31.67
2016-05-11T09:00:04.472Z,31.37
2016-05-11T09:01:04.474Z,31.45
2016-05-11T09:02:04.337Z,31.76
2016-05-11T09:03:04.480Z,29.92
2016-05-11T09:04:04.577Z,28.86
2016-05-11T09:05:04.485Z,31.2
2016-05-11T09:06:04.487Z,31.49
2016-05-11T09:07:04.491Z,32.35
2016-05-11T09:08:04.493Z,31.38
2016-05-11T09:09:04.495Z,31.95
2016-05-11T09:10:04.499Z,34.66
2016-05-11T09:11:04.501Z,34.86
2016-05-11T09:12:04.332Z,36.49
2016-05-11T09:13:04.492Z,35.8
2016-05-11T09:14:04.337Z,37.43
2016-05-11T09:15:04.497Z,36.63
2016-05-11T09:16:25.561Z,38.37
2016-05-11T09:17:04.627Z,39.34
2016-05-11T09:18:04.505Z,39.92
2016-05-11T09:19:04.491Z,40.48
2016-05-11T09:20:04.526Z,39.9
2016-05-11T09:21:04.341Z,38.83
2016-05-11T09:22:04.500Z,37.68
2016-05-11T09:23:04.503Z,38.95
2016-05-11T09:24:04.349Z,38.07
2016-05-11T09:25:04.336Z,38.48
2016-05-11T09:26:04.495Z,37.02
2016-05-11T09:27:04.513Z,37.22
2016-05-11T09:28:04.500Z,37.12
2016-05-11T09:29:04.503Z,38.07
2016-05-11T09:30:04.490Z,38.46
2016-05-11T09:31:04.493Z,37.39
2016-05-11T09:32:04.496Z,38.27
2016-05-11T09:33:04.498Z,37.76
2016-05-11T09:34:04.501Z,39.34
2016-05-11T09:35:04.332Z,38.85
2016-05-11T09:36:04.490Z,37.98
2016-05-11T09:37:04.493Z,39.43
2016-05-11T09:38:04.479Z,38.57
2016-05-11T09:39:04.483Z,38.17
2016-05-11T09:40:04.330Z,39.62
2016-05-11T09:41:04.488Z,37.39
2016-05-11T09:42:04.476Z,37.2
2016-05-11T09:43:04.478Z,35.35
2016-05-11T09:44:04.465Z,35.25
2016-05-11T09:45:04.467Z,36.52
2016-05-11T09:46:04.470Z,37.96
2016-05-11T09:47:04.473Z,36.71
2016-05-11T09:48:04.320Z,36.89
2016-05-11T09:49:04.463Z,36.79
2016-05-11T09:50:04.466Z,37.57
2016-05-11T09:51:04.312Z,39.03
2016-05-11T09:52:04.456Z,38.64
2016-05-11T09:53:04.458Z,39.2
2016-05-11T09:54:04.445Z,39.88
2016-05-11T09:55:04.447Z,38.81
2016-05-11T09:56:04.450Z,38.71
2016-05-11T09:57:04.453Z,36.02
2016-05-11T09:58:04.441Z,36.79
2016-05-11T09:59:04.443Z,37.57
2016-05-11T10:00:04.430Z,35.72
2016-05-11T10:01:04.463Z,35.41
2016-05-11T10:02:04.435Z,35.61
2016-05-11T10:03:04.438Z,35.49
2016-05-11T10:04:04.424Z,36.18
2016-05-11T10:05:04.428Z,36.83
2016-05-11T10:06:04.430Z,37.23
2016-05-11T10:07:04.418Z,40.11
2016-05-11T10:08:04.421Z,38.66
2016-05-11T10:09:04.423Z,42.34
2016-05-11T10:10:04.410Z,42.26
2016-05-11T10:11:04.413Z,41.68
2016-05-11T10:12:04.400Z,41.78
2016-05-11T10:13:04.403Z,41.02
2016-05-11T10:14:04.406Z,39.18
2016-05-11T10:15:04.408Z,38.5
2016-05-11T10:16:04.770Z,37.84
2016-05-11T10:17:04.398Z,35.8
2016-05-11T10:18:04.400Z,36.79
2016-05-11T10:19:04.388Z,34.19
2016-05-11T10:20:04.390Z,33.91
2016-05-11T10:21:04.393Z,35.27
2016-05-11T10:22:04.395Z,33.7
2016-05-11T10:23:04.225Z,35.37
2016-05-11T10:24:04.386Z,32.67
2016-05-11T10:25:04.388Z,31.71
2016-05-11T10:26:04.234Z,31.45
2016-05-11T10:27:04.378Z,31.76
2016-05-11T10:28:04.380Z,31.74
2016-05-11T10:29:04.383Z,31.95
2016-05-11T10:30:04.386Z,30.51
2016-05-11T10:31:04.544Z,29.93
2016-05-11T10:32:43.486Z,28.96
2016-05-11T10:33:04.394Z,29.96
2016-05-11T10:34:04.397Z,30.06
2016-05-11T10:35:04.446Z,26.95
2016-05-11T10:36:04.403Z,28.13
2016-05-11T10:37:04.404Z,27.62
2016-05-11T10:38:04.408Z,29.64
2016-05-11T10:39:04.410Z,29.25
2016-05-11T10:40:04.616Z,28.58
2016-05-11T10:41:04.416Z,29.82
2016-05-11T10:42:04.263Z,29.13
2016-05-11T10:43:04.437Z,26.91
2016-05-11T10:44:04.423Z,28.94
2016-05-11T10:45:04.426Z,27.98
2016-05-11T10:46:04.429Z,28.26
2016-05-11T10:47:04.431Z,30.39
2016-05-11T10:48:04.434Z,31.16
2016-05-11T10:49:05.703Z,31.24
2016-05-11T10:50:04.440Z,28.32
2016-05-11T10:51:04.458Z,30.62
2016-05-11T10:52:04.445Z,30.07
2016-05-11T10:53:04.448Z,28.63
2016-05-11T10:54:04.310Z,26.8
2016-05-11T10:55:04.469Z,28.96
2016-05-11T10:56:04.456Z,27.51
2016-05-11T10:57:04.302Z,27.03
2016-05-11T10:58:04.461Z,25.2
2016-05-11T10:59:04.527Z,25.79
2016-05-11T11:00:04.483Z,26.59
2016-05-11T11:01:04.469Z,27.26
2016-05-11T11:02:04.472Z,24.43
2016-05-11T11:03:04.491Z,24.25
2016-05-11T11:04:04.494Z,24.46
2016-05-11T11:05:04.496Z,25.54
2016-05-11T11:06:04.499Z,24.76
2016-05-11T11:07:04.502Z,21.74
2016-05-11T11:08:04.504Z,24.77
2016-05-11T11:09:05.429Z,23.02
2016-05-11T11:10:04.524Z,20.66
2016-05-11T11:11:04.528Z,23.3
2016-05-11T11:12:04.530Z,25.56
2016-05-11T11:13:04.532Z,24.58
2016-05-11T11:14:04.927Z,24.29
2016-05-11T11:15:04.538Z,24.77
2016-05-11T11:16:04.400Z,24.97
2016-05-11T11:17:04.559Z,23.71
2016-05-11T11:18:04.563Z,21.16
2016-05-11T11:19:05.034Z,23.21
2016-05-11T11:20:04.411Z,24.27
2016-05-11T11:21:04.571Z,23.5
2016-05-11T11:22:04.573Z,23.69
2016-05-11T11:23:04.435Z,22.33
2016-05-11T11:24:04.594Z,21.63
2016-05-11T11:25:04.597Z,25.26
2016-05-11T11:26:04.600Z,24.68
2016-05-11T11:27:04.445Z,24.75
2016-05-11T11:28:04.605Z,23.1
2016-05-11T11:29:04.623Z,22.81
2016-05-11T11:30:04.625Z,23.11
2016-05-11T11:31:04.472Z,24.87
2016-05-11T11:32:04.631Z,22.24
2016-05-11T11:33:04.634Z,22.73
2016-05-11T11:34:05.042Z,19.8
2016-05-11T11:35:04.655Z,21.86
2016-05-11T11:36:04.641Z,20
2016-05-11T11:37:04.660Z,20.99
2016-05-11T11:38:04.663Z,20.99
2016-05-11T11:39:04.696Z,21.56
2016-05-11T11:40:04.668Z,24.42
2016-05-11T11:41:04.686Z,21.98
2016-05-11T11:42:04.689Z,19.92
2016-05-11T11:43:04.535Z,17.77
2016-05-11T11:44:04.710Z,21.16
2016-05-11T11:45:04.697Z,19.79
2016-05-11T11:46:04.591Z,20.97
2016-05-11T11:47:04.718Z,21.17
2016-05-11T11:48:04.565Z,21.08
2016-05-11T11:49:04.724Z,22.16
2016-05-11T11:50:04.742Z,18.13
2016-05-11T11:51:04.728Z,20.39
2016-05-11T11:52:04.732Z,20.18
2016-05-11T11:53:04.750Z,22.55
2016-05-11T11:54:04.753Z,23.03
2016-05-11T11:55:04.770Z,21.38
2016-05-11T11:56:04.759Z,20.49
2016-05-11T11:57:04.761Z,20.97
2016-05-11T11:58:04.778Z,20.59
2016-05-11T11:59:05.907Z,20.29
2016-05-11T12:00:05.301Z,21.08
2016-05-11T12:01:04.803Z,20.69
2016-05-11T12:02:04.821Z,20.89
2016-05-11T12:03:04.652Z,22.16
2016-05-11T12:04:04.811Z,21.19
2016-05-11T12:05:04.813Z,20.51
2016-05-11T12:06:04.675Z,20.22
2016-05-11T12:07:04.835Z,21.67
2016-05-11T12:08:04.838Z,20.69
2016-05-11T12:09:04.855Z,21.01
2016-05-11T12:10:04.858Z,20.32
2016-05-11T12:11:04.705Z,22.28
2016-05-11T12:12:04.864Z,22.28
2016-05-11T12:13:04.866Z,22.1
2016-05-11T12:14:04.869Z,20.92
2016-05-11T12:15:04.871Z,19.73
2016-05-11T12:16:04.890Z,21.2
2016-05-11T12:17:04.893Z,19.92
2016-05-11T12:18:04.895Z,19.54
2016-05-11T12:19:04.757Z,20.22
2016-05-11T12:20:04.916Z,19.64
2016-05-11T12:21:04.919Z,21.61
2016-05-11T12:22:04.765Z,20.9
2016-05-11T12:23:04.924Z,20.32
2016-05-11T12:24:04.927Z,19.83
2016-05-11T12:25:04.945Z,21.02
2016-05-11T12:26:04.948Z,20.42
2016-05-11T12:27:04.795Z,20.82
2016-05-11T12:28:04.954Z,20.72
2016-05-11T12:29:04.956Z,20.62
2016-05-11T12:30:04.975Z,20.53
2016-05-11T12:31:04.945Z,19.94
2016-05-11T12:32:04.980Z,19.16
2016-05-11T12:33:05.014Z,19.75
2016-05-11T12:34:05.047Z,20.81
2016-05-11T12:35:05.003Z,19.84
2016-05-11T12:36:05.006Z,21.61
2016-05-11T12:37:05.034Z,18.56
2016-05-11T12:38:05.100Z,20.82
2016-05-11T12:39:05.166Z,20.33
2016-05-11T12:40:05.403Z,17.88
2016-05-11T12:41:05.250Z,20.64
2016-05-11T12:42:05.283Z,19.95
2016-05-11T12:43:05.319Z,18.88
2016-05-11T12:44:05.181Z,20.84
2016-05-11T12:45:05.358Z,20.45
2016-05-11T12:46:05.628Z,18.48
2016-05-11T12:47:05.406Z,19.56
2016-05-11T12:48:05.415Z,19.95
2016-05-11T12:49:05.424Z,20.14
2016-05-11T12:50:05.433Z,18.57
2016-05-11T12:51:05.442Z,19.95
2016-05-11T12:52:05.495Z,19.94
2016-05-11T12:53:05.469Z,19.15
2016-05-11T12:54:05.473Z,17.68
2016-05-11T12:55:05.525Z,19.25